Terminal Aerodrome Forecast
Issued by NWS

Home | Current Version | Previous Version | Text Only | Print | Product List | Glossary On
Versions: 1 2 3 4 5 6 7 8 9 10 11 12 13 14 15
261
FTUS45 KRIW 231729
TAFLND
TAF
KLND 231729Z 2318/2418 VRB04KT P6SM FEW060
     FM232000 05007KT P6SM SCT070
     FM240400 VRB05KT P6SM SKC
     FM241300 01006KT P6SM SCT080 BKN200=

USA.gov is the U.S. government's official web portal to all federal, state and local government web resources and services.